Time;durP1;ratioP1;P1;durP2;ratioP2;P2;SDS_P1;SDS_P2;PMS_P1;PMS_P2;Temp;Humidity;BMP_temperature;BMP_pressure;BME280_temperature;BME280_humidity;BME280_pressure;Samples;Min_cycle;Max_cycle;Signal;HPM_P1;HPM_P2
2022/10/15 00:01:12;;;;;;;11.30;3.60;;;;;;;5.29;83.06;95988.05;1759992;81;21053;-68
2022/10/15 00:03:41;;;;;;;7.60;4.10;;;;;;;5.27;83.64;95987.15;1758743;81;21097;-68
2022/10/15 00:06:15;;;;;;;9.00;4.30;;;;;;;5.27;83.12;95979.30;1758020;81;20993;-68
2022/10/15 00:08:43;;;;;;;6.83;3.67;;;;;;;5.27;83.31;95984.53;1757291;81;21029;-68
2022/10/15 00:11:17;;;;;;;12.13;4.03;;;;;;;5.26;83.42;95985.81;1754705;81;21101;-68
2022/10/15 00:13:43;;;;;;;7.50;3.83;;;;;;;5.20;83.69;95985.34;1754632;81;22107;-67
2022/10/15 00:16:15;;;;;;;5.13;3.53;;;;;;;5.14;83.13;95987.48;1756655;81;21045;-68
2022/10/15 00:18:42;;;;;;;6.87;3.60;;;;;;;4.97;82.66;95981.22;1758665;81;21013;-68
2022/10/15 00:21:13;;;;;;;6.07;3.37;;;;;;;4.88;83.06;95981.12;1754303;81;21062;-68
2022/10/15 00:23:41;;;;;;;11.17;4.10;;;;;;;4.82;83.06;95981.95;1757367;81;21013;-68
2022/10/15 00:26:12;;;;;;;10.50;3.63;;;;;;;4.82;83.75;95979.77;1757069;81;21034;-68
2022/10/15 00:28:40;;;;;;;8.70;3.83;;;;;;;4.91;84.20;95972.89;1759407;81;20982;-69
2022/10/15 00:31:12;;;;;;;6.00;3.30;;;;;;;4.93;84.86;95971.58;1758744;81;21029;-69
2022/10/15 00:33:40;;;;;;;4.23;2.73;;;;;;;4.92;84.84;95964.61;1758226;81;21548;-69
2022/10/15 00:36:13;;;;;;;5.17;3.57;;;;;;;4.90;83.61;95965.02;1758594;81;21130;-68
2022/10/15 00:38:41;;;;;;;4.08;2.77;;;;;;;4.83;83.46;95965.38;1760137;81;21570;-69
2022/10/15 00:41:17;;;;;;;5.13;3.20;;;;;;;4.85;84.18;95969.33;1758530;81;21587;-69
2022/10/15 00:43:51;;;;;;;7.33;2.90;;;;;;;4.87;84.08;95971.54;1755133;81;21026;-68
2022/10/15 00:46:30;;;;;;;6.03;3.07;;;;;;;4.93;83.78;95968.97;1758544;81;21058;-68
2022/10/15 00:49:27;;;;;;;11.37;3.33;;;;;;;5.01;84.16;95969.03;1728234;81;21788;-68
2022/10/15 00:52:02;;;;;;;7.47;3.40;;;;;;;5.06;83.50;95969.52;1759983;81;21753;-68
2022/10/15 00:54:34;;;;;;;6.00;3.20;;;;;;;5.03;83.15;95967.31;1757756;81;21164;-68
2022/10/15 00:57:01;;;;;;;6.67;3.13;;;;;;;5.07;83.99;95958.20;1756594;81;20990;-68
2022/10/15 00:59:30;;;;;;;5.03;2.90;;;;;;;5.09;83.60;95959.10;1755709;81;21081;-68
2022/10/15 01:01:59;;;;;;;4.90;2.97;;;;;;;5.09;82.98;95959.10;1758356;81;20994;-68
2022/10/15 01:04:27;;;;;;;6.20;3.00;;;;;;;5.05;83.10;95964.28;1757193;81;21033;-66
2022/10/15 01:06:54;;;;;;;4.80;3.20;;;;;;;5.04;83.03;95953.36;1757439;81;21053;-69
2022/10/15 01:09:21;;;;;;;5.67;3.00;;;;;;;4.99;83.11;95955.97;1758410;81;21069;-68
2022/10/15 01:11:53;;;;;;;5.50;3.30;;;;;;;4.93;82.87;95952.84;1758512;81;21026;-68
2022/10/15 01:14:34;;;;;;;6.07;3.70;;;;;;;4.87;82.62;95959.34;1758555;81;20994;-68
2022/10/15 01:17:21;;;;;;;7.23;3.93;;;;;;;4.82;82.94;95961.47;1756261;81;21030;-69
2022/10/15 01:20:28;;;;;;;5.77;4.17;;;;;;;4.88;83.45;95953.23;1757000;81;21014;-68
2022/10/15 01:23:20;;;;;;;12.67;3.90;;;;;;;4.86;83.18;95949.72;1755741;81;21018;-68
2022/10/15 01:26:09;;;;;;;6.13;3.83;;;;;;;4.88;83.40;95954.97;1760509;81;21488;-68
2022/10/15 01:28:47;;;;;;;10.37;4.30;;;;;;;4.83;83.15;95960.59;1759734;81;21072;-68
2022/10/15 01:31:32;;;;;;;6.97;4.93;;;;;;;4.75;83.79;95957.91;1758409;81;21860;-68
2022/10/15 01:34:03;;;;;;;6.10;3.67;;;;;;;4.75;83.96;95955.29;1758948;81;21475;-68
2022/10/15 01:36:51;;;;;;;8.20;3.30;;;;;;;4.65;83.45;95955.63;1757261;81;21085;-68
2022/10/15 01:39:26;;;;;;;4.40;3.10;;;;;;;4.51;82.67;95958.11;1757086;81;21086;-68
2022/10/15 01:42:00;;;;;;;11.57;4.07;;;;;;;4.41;83.28;95959.28;1758900;81;21049;-68
2022/10/15 01:44:45;;;;;;;4.97;3.50;;;;;;;4.39;83.55;95957.98;1757015;81;21013;-69
2022/10/15 01:47:42;;;;;;;9.27;3.70;;;;;;;4.42;83.52;95957.13;1752537;81;21022;-69
2022/10/15 01:50:13;;;;;;;5.77;3.60;;;;;;;4.41;84.02;95954.95;1757421;81;21500;-69
2022/10/15 01:52:41;;;;;;;4.00;3.13;;;;;;;4.41;84.30;95961.48;1758479;81;21066;-69
2022/10/15 01:55:12;;;;;;;6.90;3.67;;;;;;;4.31;83.90;95959.20;1759194;81;21010;-69
2022/10/15 01:57:42;;;;;;;9.93;3.43;;;;;;;4.24;85.20;95953.89;1725822;81;21515;-69
2022/10/15 02:00:11;;;;;;;6.33;3.23;;;;;;;4.20;85.05;95963.41;1757550;81;21101;-69
2022/10/15 02:02:41;;;;;;;7.33;4.00;;;;;;;4.21;85.05;95953.42;1754888;81;21018;-68
2022/10/15 02:05:23;;;;;;;6.57;3.67;;;;;;;4.25;85.72;95960.41;1758392;81;22332;-69
2022/10/15 02:08:06;;;;;;;8.88;3.35;;;;;;;4.31;85.33;95959.20;1760202;81;21014;-68
2022/10/15 02:10:56;;;;;;;7.90;2.90;;;;;;;4.36;85.37;95959.25;1758729;81;21018;-69
2022/10/15 02:14:04;;;;;;;5.10;2.63;;;;;;;4.43;85.06;95959.74;1758630;81;21028;-69
2022/10/15 02:16:39;;;;;;;8.53;3.13;;;;;;;4.48;85.34;95960.67;1758933;81;21015;-68
2022/10/15 02:19:26;;;;;;;7.73;3.60;;;;;;;4.60;85.58;95965.16;1759223;81;21034;-69
2022/10/15 02:22:07;;;;;;;9.27;3.93;;;;;;;4.68;85.64;95954.78;1753884;81;21018;-69
2022/10/15 02:24:48;;;;;;;6.67;3.60;;;;;;;4.82;85.36;95958.85;1754312;81;21057;-69
2022/10/15 02:27:17;;;;;;;8.17;3.57;;;;;;;4.79;84.88;95957.09;1754842;81;21002;-70
2022/10/15 02:29:48;;;;;;;4.83;3.27;;;;;;;4.87;85.45;95960.64;1758725;81;21536;-69
2022/10/15 02:32:19;;;;;;;9.73;2.70;;;;;;;4.99;85.31;95958.58;1758550;81;20975;-70
2022/10/15 02:34:46;;;;;;;9.40;3.03;;;;;;;5.02;85.00;95959.91;1755148;81;21014;-68
2022/10/15 02:37:14;;;;;;;6.43;2.60;;;;;;;5.07;85.03;95959.52;1755715;81;21045;-69
2022/10/15 02:39:43;;;;;;;8.93;2.83;;;;;;;5.04;84.21;95959.90;1757431;81;21598;-68
2022/10/15 02:42:09;;;;;;;5.03;2.80;;;;;;;4.98;84.04;95958.11;1756187;81;21006;-69
2022/10/15 02:44:36;;;;;;;7.50;3.23;;;;;;;4.99;84.54;95946.81;1760737;81;21069;-69
2022/10/15 02:47:03;;;;;;;7.73;3.20;;;;;;;5.07;84.39;95950.36;1758627;81;21002;-68
2022/10/15 02:49:30;;;;;;;4.70;2.80;;;;;;;5.08;84.43;95955.16;1758643;81;21073;-68
2022/10/15 02:51:56;;;;;;;7.97;3.83;;;;;;;5.12;85.05;95954.33;1758917;81;20997;-68
2022/10/15 02:54:23;;;;;;;12.47;4.17;;;;;;;5.15;84.98;95951.30;1758862;81;21543;-69
2022/10/15 02:56:49;;;;;;;5.50;3.67;;;;;;;5.26;85.04;95949.19;1754047;81;21014;-69
2022/10/15 02:59:18;;;;;;;6.30;3.90;;;;;;;5.23;84.47;95946.56;1757693;81;21006;-69
2022/10/15 03:01:45;;;;;;;11.93;3.80;;;;;;;5.17;84.52;95948.27;1758763;81;21002;-69
2022/10/15 03:04:14;;;;;;;4.30;2.93;;;;;;;5.20;84.65;95944.80;1725548;81;21583;-69
2022/10/15 03:06:41;;;;;;;7.03;3.40;;;;;;;5.08;83.32;95948.17;1756278;81;21468;-69
2022/10/15 03:09:08;;;;;;;6.77;3.43;;;;;;;5.02;84.08;95951.19;1758951;81;21026;-67
2022/10/15 03:11:34;;;;;;;4.87;3.57;;;;;;;5.05;84.78;95951.21;1758712;81;21511;-69
2022/10/15 03:14:01;;;;;;;7.93;3.93;;;;;;;5.02;84.71;95952.50;1758780;81;20997;-69
2022/10/15 03:16:29;;;;;;;8.93;3.17;;;;;;;5.00;84.66;95952.47;1758619;81;21065;-69
2022/10/15 03:18:56;;;;;;;5.63;3.43;;;;;;;4.91;84.31;95949.77;1757452;81;21037;-68
2022/10/15 03:21:24;;;;;;;5.43;3.93;;;;;;;4.87;84.48;95954.54;1757181;81;21014;-69
2022/10/15 03:23:52;;;;;;;5.20;3.67;;;;;;;4.81;84.88;95946.19;1757769;81;21080;-68
2022/10/15 03:26:21;;;;;;;9.37;4.53;;;;;;;4.78;84.58;95954.88;1756922;81;20983;-68
2022/10/15 03:28:48;;;;;;;24.57;12.00;;;;;;;4.67;84.61;95956.96;1731800;81;21662;-69
2022/10/15 03:31:17;;;;;;;10.50;7.00;;;;;;;4.64;84.47;95956.94;1758076;81;21544;-69
2022/10/15 03:33:45;;;;;;;12.67;6.37;;;;;;;4.60;84.65;95957.32;1759894;81;21041;-69
2022/10/15 03:36:13;;;;;;;11.30;3.40;;;;;;;4.55;84.75;95961.63;1732419;81;21033;-69
2022/10/15 03:38:40;;;;;;;5.83;3.10;;;;;;;4.57;85.46;95960.34;1757231;81;21053;-69
2022/10/15 03:41:08;;;;;;;6.93;3.27;;;;;;;4.65;85.51;95954.32;1757667;81;21070;-69
2022/10/15 03:43:37;;;;;;;10.90;3.97;;;;;;;4.67;85.09;95960.45;1755864;81;21579;-69
2022/10/15 03:46:04;;;;;;;10.10;5.07;;;;;;;4.69;85.65;95953.50;1758689;81;21010;-69
2022/10/15 03:48:33;;;;;;;10.70;5.37;;;;;;;4.69;85.48;95953.50;1758745;81;21018;-69
2022/10/15 03:51:00;;;;;;;5.93;3.03;;;;;;;4.74;85.47;95952.25;1759892;81;21551;-69
2022/10/15 03:53:26;;;;;;;5.90;3.73;;;;;;;4.71;85.03;95951.78;1758255;81;21018;-69
2022/10/15 03:55:53;;;;;;;8.10;2.77;;;;;;;4.72;85.93;95952.22;1758582;81;21026;-69
2022/10/15 03:58:20;;;;;;;10.60;3.20;;;;;;;4.70;85.62;95948.70;1756266;81;20986;-69
2022/10/15 04:00:48;;;;;;;5.50;3.50;;;;;;;4.69;85.47;95954.81;1759279;81;21476;-69
2022/10/15 04:03:15;;;;;;;9.10;4.40;;;;;;;4.72;85.52;95952.22;1757590;81;20963;-69
2022/10/15 04:05:50;;;;;;;8.73;4.33;;;;;;;4.65;85.26;95953.02;1753460;81;21023;-69
2022/10/15 04:08:17;;;;;;;10.13;3.97;;;;;;;4.55;84.17;95959.01;1757380;81;21089;-69
2022/10/15 04:10:44;;;;;;;5.37;3.20;;;;;;;4.55;85.00;95951.17;1757306;81;21092;-69
2022/10/15 04:13:11;;;;;;;5.70;3.00;;;;;;;4.64;85.10;95954.33;1758483;81;21018;-69
2022/10/15 04:15:41;;;;;;;7.30;4.40;;;;;;;4.66;84.74;95952.58;1757422;81;21045;-69
2022/10/15 04:18:10;;;;;;;9.97;3.73;;;;;;;4.61;85.12;95956.48;1757069;81;21014;-70
2022/10/15 04:20:37;;;;;;;9.37;3.43;;;;;;;4.65;85.69;95962.16;1756311;81;21033;-69
2022/10/15 04:23:11;;;;;;;7.10;3.67;;;;;;;4.72;85.57;95961.37;1756124;81;21027;-69
2022/10/15 04:25:39;;;;;;;8.57;4.00;;;;;;;4.75;85.48;95969.67;1757541;81;22209;-70
2022/10/15 04:28:07;;;;;;;9.30;4.70;;;;;;;4.73;84.74;95970.95;1758542;81;21540;-70
2022/10/15 04:30:35;;;;;;;7.93;3.73;;;;;;;4.63;84.04;95963.01;1757218;81;21054;-69
2022/10/15 04:33:04;;;;;;;5.47;3.50;;;;;;;4.53;84.26;95965.52;1754921;81;21097;-70
2022/10/15 04:35:31;;;;;;;5.50;3.77;;;;;;;4.50;84.46;95966.80;1755134;81;21014;-69
2022/10/15 04:38:00;;;;;;;7.40;3.47;;;;;;;4.43;85.10;95971.50;1758032;81;21131;-69
2022/10/15 04:40:29;;;;;;;7.00;4.30;;;;;;;4.42;85.40;95977.59;1758125;81;21544;-68
2022/10/15 04:42:56;;;;;;;12.53;4.43;;;;;;;4.40;85.63;95983.23;1758285;81;21508;-69
2022/10/15 04:45:23;;;;;;;8.27;4.63;;;;;;;4.42;85.03;95982.83;1757612;81;21166;-68
2022/10/15 04:47:50;;;;;;;10.70;4.50;;;;;;;4.44;85.30;95982.42;1756818;81;21061;-68
2022/10/15 04:50:18;;;;;;;7.10;4.20;;;;;;;4.45;85.17;95981.98;1757810;81;20998;-68
2022/10/15 04:53:04;;;;;;;8.00;3.67;;;;;;;4.41;85.22;95988.02;1757132;81;21026;-68
2022/10/15 04:55:32;;;;;;;12.13;3.60;;;;;;;4.31;85.10;95985.32;1752895;81;21042;-69
2022/10/15 04:57:59;;;;;;;9.07;4.37;;;;;;;4.29;85.59;95984.42;1756716;81;21475;-69
2022/10/15 05:00:28;;;;;;;7.07;3.77;;;;;;;4.26;85.68;95988.74;1757071;81;21066;-69
2022/10/15 05:03:14;;;;;;;8.33;3.77;;;;;;;4.22;86.21;95989.55;1681673;85;21071;-69
2022/10/15 05:05:45;;;;;;;7.40;3.70;;;;;;;4.16;85.87;95998.20;1687188;85;21078;-70
2022/10/15 05:08:12;;;;;;;7.37;3.63;;;;;;;4.11;85.45;95999.44;1708433;81;21065;-69
2022/10/15 05:11:04;;;;;;;7.93;3.77;;;;;;;4.10;85.63;96005.94;1756313;81;21026;-69
2022/10/15 05:13:33;;;;;;;10.27;3.90;;;;;;;4.16;86.19;96000.81;1758879;81;21076;-69
2022/10/15 05:16:17;;;;;;;9.37;4.40;;;;;;;4.27;86.56;96010.95;1760030;81;21062;-69
2022/10/15 05:18:47;;;;;;;8.70;3.40;;;;;;;4.35;86.31;96007.12;1758035;81;21097;-68
2022/10/15 05:21:15;;;;;;;10.73;4.40;;;;;;;4.38;85.85;96009.76;1758745;81;21009;-68
2022/10/15 05:23:44;;;;;;;6.10;3.43;;;;;;;4.43;86.61;96012.00;1733760;81;20994;-68
2022/10/15 05:26:17;;;;;;;7.07;3.67;;;;;;;4.51;85.66;96009.47;1754692;81;21014;-69
2022/10/15 05:28:44;;;;;;;7.63;3.77;;;;;;;4.56;85.98;96011.70;1756089;81;21077;-69
2022/10/15 05:31:16;;;;;;;10.37;4.50;;;;;;;4.69;86.49;96009.70;1759250;81;20986;-69
2022/10/15 05:33:43;;;;;;;7.60;5.13;;;;;;;4.84;87.08;96010.30;1757487;81;21010;-69
2022/10/15 05:36:26;;;;;;;10.57;7.97;;;;;;;5.03;87.02;96007.41;1760177;81;21610;-69
2022/10/15 05:38:57;;;;;;;11.07;7.50;;;;;;;5.21;86.36;96010.62;1755823;81;21061;-68
2022/10/15 05:41:26;;;;;;;10.43;5.50;;;;;;;5.33;85.68;96016.41;1759306;81;20986;-69
2022/10/15 05:43:56;;;;;;;14.03;7.83;;;;;;;5.35;85.09;96012.07;1760003;81;21033;-69
2022/10/15 05:46:25;;;;;;;13.83;7.20;;;;;;;5.38;85.55;96013.39;1757647;81;21018;-69
2022/10/15 05:48:54;;;;;;;10.97;6.33;;;;;;;5.48;85.63;96015.22;1758528;81;21132;-68
2022/10/15 05:51:23;;;;;;;10.07;5.60;;;;;;;5.67;85.65;96010.11;1759665;81;21036;-70
2022/10/15 05:53:53;;;;;;;9.93;5.33;;;;;;;5.82;85.66;96008.90;1727348;81;21010;-69
2022/10/15 05:56:20;;;;;;;14.07;8.23;;;;;;;5.92;84.99;96012.46;1757940;81;21023;-69
2022/10/15 05:58:47;;;;;;;10.97;6.50;;;;;;;5.95;84.81;96012.09;1757842;81;21050;-69
2022/10/15 06:01:14;;;;;;;12.70;6.63;;;;;;;6.11;85.29;96009.56;1756044;81;21010;-69
2022/10/15 06:03:42;;;;;;;9.50;6.43;;;;;;;6.22;85.44;96011.78;1757461;81;21114;-69
2022/10/15 06:06:23;;;;;;;11.60;7.23;;;;;;;6.31;85.08;96009.66;1757162;81;21065;-69
2022/10/15 06:08:50;;;;;;;11.27;6.97;;;;;;;6.47;85.32;96004.47;1760232;81;21539;-69
2022/10/15 06:11:18;;;;;;;12.33;6.67;;;;;;;6.55;84.77;96004.53;1760239;81;21018;-69
2022/10/15 06:13:46;;;;;;;12.23;7.03;;;;;;;6.63;84.77;96001.48;1760043;81;21093;-70
2022/10/15 06:16:15;;;;;;;11.43;6.97;;;;;;;6.69;84.44;96005.88;1757447;81;21146;-69
2022/10/15 06:18:41;;;;;;;15.93;7.90;;;;;;;6.72;84.27;96009.36;1758964;81;21511;-69
2022/10/15 06:21:11;;;;;;;14.07;8.07;;;;;;;6.80;84.54;96009.83;1760000;81;21022;-70
2022/10/15 06:23:38;;;;;;;11.43;8.70;;;;;;;6.85;84.28;96007.64;1755935;81;21499;-70
2022/10/15 06:26:08;;;;;;;15.73;12.70;;;;;;;6.89;84.24;96003.30;1758768;81;21508;-69
2022/10/15 06:28:36;;;;;;;16.17;10.80;;;;;;;6.94;84.07;96008.99;1757541;81;21029;-70
2022/10/15 06:31:03;;;;;;;13.97;8.30;;;;;;;7.03;84.17;96013.81;1753735;81;21125;-69
2022/10/15 06:33:31;;;;;;;11.20;7.43;;;;;;;7.07;84.08;96012.52;1759893;81;21017;-69
2022/10/15 06:36:10;;;;;;;10.83;6.90;;;;;;;7.11;84.06;96007.72;1760120;81;21044;-70
2022/10/15 06:38:38;;;;;;;13.77;7.87;;;;;;;7.18;83.98;96015.59;1756871;81;21086;-69
2022/10/15 06:41:07;;;;;;;12.13;7.33;;;;;;;7.29;84.05;96011.24;1757437;81;21078;-69
2022/10/15 06:43:35;;;;;;;11.40;7.27;;;;;;;7.40;83.78;96005.55;1756158;81;21029;-69
2022/10/15 06:46:04;;;;;;;11.90;7.10;;;;;;;7.49;83.35;96006.87;1758785;81;21575;-69
2022/10/15 06:48:31;;;;;;;13.13;7.50;;;;;;;7.57;83.15;96002.93;1758504;81;21061;-68
2022/10/15 06:51:00;;;;;;;9.57;6.73;;;;;;;7.68;83.02;96004.23;1758316;81;21152;-68
2022/10/15 06:53:28;;;;;;;14.37;7.23;;;;;;;7.81;82.85;96004.64;1756650;81;21069;-69
2022/10/15 06:56:01;;;;;;;12.37;6.43;;;;;;;7.91;82.79;96010.77;1759655;81;21009;-70
2022/10/15 06:58:29;;;;;;;10.07;6.50;;;;;;;8.06;83.04;96008.10;1757344;81;21662;-70
2022/10/15 07:01:01;;;;;;;14.87;7.23;;;;;;;8.24;83.03;96013.78;1759918;81;21444;-71
2022/10/15 07:03:28;;;;;;;14.57;6.63;;;;;;;8.43;82.96;96011.98;1756742;81;21033;-69
2022/10/15 07:05:56;;;;;;;8.30;6.17;;;;;;;8.61;82.58;96013.66;1758772;81;20990;-69
2022/10/15 07:08:24;;;;;;;13.47;6.57;;;;;;;8.76;82.57;96009.65;1751270;81;21030;-69
2022/10/15 07:10:51;;;;;;;45.43;26.77;;;;;;;8.90;82.31;96008.73;1758743;81;21563;-69
2022/10/15 07:13:19;;;;;;;13.00;7.60;;;;;;;9.13;82.38;96013.85;1758687;81;21018;-70
2022/10/15 07:15:48;;;;;;;8.90;5.63;;;;;;;9.31;81.90;96005.82;1758680;81;20998;-69
2022/10/15 07:18:15;;;;;;;11.33;5.83;;;;;;;9.49;81.09;96000.41;1756125;81;20995;-69
2022/10/15 07:20:42;;;;;;;8.38;5.37;;;;;;;9.65;80.92;96010.81;1758578;81;21022;-68
2022/10/15 07:23:09;;;;;;;9.13;5.83;;;;;;;9.83;79.94;96009.36;1730401;81;21001;-69
2022/10/15 07:25:36;;;;;;;9.58;6.50;;;;;;;10.00;80.75;96000.41;1757376;81;21058;-70
2022/10/15 07:28:03;;;;;;;11.53;7.17;;;;;;;10.18;80.62;95994.97;1757100;81;21049;-70
2022/10/15 07:30:29;;;;;;;10.15;7.12;;;;;;;10.33;80.18;95996.56;1759642;81;21499;-69
2022/10/15 07:32:58;;;;;;;9.63;6.00;;;;;;;10.49;80.30;95996.84;1754994;81;21084;-69
2022/10/15 07:35:28;;;;;;;13.68;6.67;;;;;;;10.65;79.27;95997.52;1757153;81;20982;-69
2022/10/15 07:37:54;;;;;;;7.78;6.05;;;;;;;10.82;79.84;95994.67;1756876;81;21092;-69
2022/10/15 07:40:21;;;;;;;12.93;5.58;;;;;;;11.00;78.86;95996.19;1755154;81;21029;-69
2022/10/15 07:42:55;;;;;;;7.58;5.12;;;;;;;11.07;77.20;95991.25;1755967;81;21068;-68
2022/10/15 07:45:25;;;;;;;10.43;6.87;;;;;;;11.18;75.68;95996.38;1754931;81;21520;-69
2022/10/15 07:47:53;;;;;;;9.95;5.30;;;;;;;11.28;76.94;95999.75;1758256;81;21058;-70
2022/10/15 07:50:20;;;;;;;7.58;5.70;;;;;;;11.35;74.68;95998.77;1759504;81;21022;-69
2022/10/15 07:52:47;;;;;;;7.58;5.30;;;;;;;11.39;74.89;95991.20;1758028;81;21053;-69
2022/10/15 07:55:14;;;;;;;60.75;39.95;;;;;;;11.47;75.14;95995.48;1754965;81;21002;-69
2022/10/15 07:57:41;;;;;;;17.07;11.90;;;;;;;11.61;75.51;95993.06;1755129;81;21065;-68
2022/10/15 08:00:09;;;;;;;8.45;6.45;;;;;;;11.78;75.95;96004.69;1758913;81;21873;-69
2022/10/15 08:02:39;;;;;;;7.70;5.15;;;;;;;11.91;75.22;96003.61;1757463;81;21050;-70
2022/10/15 08:05:07;;;;;;;6.72;4.83;;;;;;;11.99;73.65;96006.98;1756454;81;21030;-69
2022/10/15 08:07:34;;;;;;;10.20;5.62;;;;;;;12.01;72.59;96004.33;1756970;81;21014;-70
2022/10/15 08:10:05;;;;;;;7.45;5.35;;;;;;;12.09;73.27;96005.05;1758458;81;21071;-70
2022/10/15 08:12:31;;;;;;;7.10;5.45;;;;;;;12.25;74.39;96005.22;1755790;81;21077;-69
2022/10/15 08:14:58;;;;;;;10.85;5.65;;;;;;;12.43;73.96;96002.67;1755176;81;21010;-70
2022/10/15 08:17:25;;;;;;;8.18;4.90;;;;;;;12.54;73.69;96005.09;1757937;81;21527;-70
2022/10/15 08:19:52;;;;;;;8.95;5.72;;;;;;;12.61;72.69;96002.75;1757949;81;21058;-69
2022/10/15 08:22:18;;;;;;;7.42;5.20;;;;;;;12.76;73.39;95999.80;1756759;81;21166;-71
2022/10/15 08:24:45;;;;;;;8.08;4.47;;;;;;;12.94;72.91;96006.94;1757125;81;21042;-70
2022/10/15 08:27:12;;;;;;;8.70;4.85;;;;;;;13.11;70.40;96003.47;1756952;81;21555;-70
2022/10/15 08:29:38;;;;;;;7.42;4.60;;;;;;;13.21;70.91;96005.47;1757240;81;21030;-70
2022/10/15 08:32:05;;;;;;;13.88;9.60;;;;;;;13.36;70.53;95993.69;1758457;81;21021;-70
2022/10/15 08:34:32;;;;;;;8.85;5.08;;;;;;;13.52;69.61;95999.03;1760095;81;21049;-70
2022/10/15 08:36:58;;;;;;;7.53;4.60;;;;;;;13.70;70.24;96000.37;1759769;81;21029;-70
2022/10/15 08:39:25;;;;;;;8.90;4.40;;;;;;;13.90;70.00;95996.36;1757247;81;21025;-70
2022/10/15 08:42:02;;;;;;;6.67;5.22;;;;;;;14.00;68.41;95998.73;1760007;81;21010;-70
2022/10/15 08:44:55;;;;;;;7.80;4.55;;;;;;;14.13;68.71;95991.33;1728058;81;21519;-69
2022/10/15 08:47:39;;;;;;;6.50;5.03;;;;;;;14.26;66.56;95991.87;1757835;81;21082;-70
2022/10/15 08:50:45;;;;;;;10.80;5.92;;;;;;;14.37;66.12;95998.25;1756276;81;21082;-69
2022/10/15 08:53:21;;;;;;;8.68;5.22;;;;;;;14.51;66.74;95994.73;1739229;82;21026;-70
2022/10/15 08:55:53;;;;;;;8.83;4.80;;;;;;;14.71;65.28;95991.55;1725512;82;21021;-70
2022/10/15 08:58:29;;;;;;;6.75;5.00;;;;;;;14.89;64.85;95988.83;1743907;81;21097;-70
2022/10/15 09:01:16;;;;;;;7.22;5.10;;;;;;;15.05;64.79;95990.13;1755456;81;21038;-70
2022/10/15 09:04:15;;;;;;;6.80;4.92;;;;;;;15.13;63.06;95988.11;1760031;81;21075;-70
2022/10/15 09:06:42;;;;;;;6.92;5.40;;;;;;;15.21;63.88;95998.50;1757172;81;21006;-70
2022/10/15 09:09:38;;;;;;;9.80;5.55;;;;;;;15.29;64.17;95999.13;1755858;81;21007;-71
2022/10/15 09:12:51;;;;;;;6.55;5.42;;;;;;;15.48;64.39;95995.92;1755567;81;21119;-71
2022/10/15 09:15:20;;;;;;;6.30;5.08;;;;;;;15.62;63.58;95999.00;1760951;81;21022;-70
2022/10/15 09:17:50;;;;;;;9.60;5.75;;;;;;;15.75;63.55;95991.55;1759686;81;21472;-70
2022/10/15 09:20:27;;;;;;;10.35;5.92;;;;;;;15.79;62.76;95995.83;1755269;81;21095;-71
2022/10/15 09:22:54;;;;;;;6.58;5.45;;;;;;;15.88;63.47;95998.67;1757698;81;20991;-71
2022/10/15 09:25:23;;;;;;;7.15;5.37;;;;;;;16.03;63.15;95999.92;1758363;81;21053;-70
2022/10/15 09:27:51;;;;;;;8.70;6.03;;;;;;;16.18;63.19;95998.10;1756089;81;21053;-70
2022/10/15 09:30:42;;;;;;;6.75;5.53;;;;;;;16.29;60.53;95999.92;1757231;81;21609;-69
2022/10/15 09:33:35;;;;;;;8.55;5.75;;;;;;;16.26;61.09;96002.70;1739739;81;21057;-70
2022/10/15 09:36:19;;;;;;;7.30;5.75;;;;;;;16.32;60.84;96003.80;1758380;81;21030;-69
2022/10/15 09:39:17;;;;;;;9.10;5.55;;;;;;;16.51;61.43;96006.71;1758852;81;21026;-69
2022/10/15 09:42:17;;;;;;;8.38;5.95;;;;;;;16.58;60.09;96007.34;1758011;81;21098;-70
2022/10/15 09:44:46;;;;;;;7.50;5.70;;;;;;;16.71;60.36;96010.47;1757220;81;21015;-70
2022/10/15 09:47:31;;;;;;;7.65;6.33;;;;;;;16.85;59.26;96005.52;1758653;81;21551;-71
2022/10/15 09:50:05;;;;;;;7.20;5.30;;;;;;;17.07;60.70;96014.45;1759335;81;21571;-71
2022/10/15 09:53:07;;;;;;;7.95;5.28;;;;;;;17.24;58.48;96013.83;1756114;81;21022;-70
2022/10/15 09:55:54;;;;;;;7.37;5.45;;;;;;;17.32;58.52;96010.00;1758384;81;21073;-71
2022/10/15 09:58:40;;;;;;;10.55;5.95;;;;;;;17.38;58.50;95999.95;1758229;81;21077;-71
2022/10/15 10:01:18;;;;;;;7.85;5.50;;;;;;;17.27;58.31;96004.38;1756925;81;21097;-70
2022/10/15 10:03:50;;;;;;;6.85;5.72;;;;;;;17.30;57.95;96006.91;1757702;81;21464;-70
2022/10/15 10:06:16;;;;;;;7.22;5.45;;;;;;;17.36;57.80;96002.27;1755352;81;21022;-70
2022/10/15 10:08:56;;;;;;;7.65;5.87;;;;;;;17.51;56.64;96001.23;1758442;81;21065;-70
2022/10/15 10:11:25;;;;;;;7.55;6.08;;;;;;;17.47;57.24;96005.41;1758828;81;21019;-71
2022/10/15 10:13:59;;;;;;;11.20;6.05;;;;;;;17.32;57.10;96012.20;1755430;81;21137;-71
2022/10/15 10:16:28;;;;;;;7.85;6.50;;;;;;;17.21;57.48;96016.63;1728844;81;21053;-70
2022/10/15 10:19:14;;;;;;;8.08;6.70;;;;;;;17.20;57.85;96010.86;1760201;81;21496;-70
2022/10/15 10:21:42;;;;;;;8.50;6.35;;;;;;;17.37;56.38;96005.36;1758918;81;20997;-71
2022/10/15 10:24:29;;;;;;;7.55;6.33;;;;;;;17.31;57.50;95999.78;1759889;81;21133;-71
2022/10/15 10:26:57;;;;;;;9.18;6.92;;;;;;;17.30;57.05;96000.72;1759865;81;21104;-71
2022/10/15 10:29:26;;;;;;;9.35;7.10;;;;;;;17.17;55.86;95999.45;1758627;81;21018;-71
2022/10/15 10:31:53;;;;;;;11.03;7.15;;;;;;;17.14;56.86;95996.45;1758347;81;21018;-70
2022/10/15 10:34:30;;;;;;;7.75;5.58;;;;;;;17.13;57.29;96000.02;1758502;81;20982;-70
2022/10/15 10:37:02;;;;;;;11.33;6.17;;;;;;;17.92;55.99;95984.04;1755072;81;21026;-71
2022/10/15 10:39:31;;;;;;;19.30;7.65;;;;;;;17.92;55.99;95984.04;1757472;81;21781;-71
2022/10/15 10:42:02;;;;;;;10.58;6.60;;;;;;;17.91;55.07;95984.09;1757389;81;21069;-71
2022/10/15 10:44:45;;;;;;;10.32;6.72;;;;;;;17.77;56.22;95989.11;1758694;81;20986;-70
2022/10/15 10:47:23;;;;;;;11.40;6.67;;;;;;;17.62;55.68;95983.92;1757173;81;21543;-70
2022/10/15 10:49:57;;;;;;;10.20;6.53;;;;;;;17.38;55.77;95983.95;1757277;81;22113;-70
2022/10/15 10:52:33;;;;;;;8.73;6.53;;;;;;;17.38;56.51;95985.75;1758797;81;21464;-71
2022/10/15 10:55:25;;;;;;;10.03;7.00;;;;;;;17.36;57.11;95976.94;1753936;81;21021;-71
2022/10/15 10:57:58;;;;;;;10.30;6.92;;;;;;;17.30;57.35;95982.05;1757614;81;21002;-70
2022/10/15 11:00:44;;;;;;;8.55;6.40;;;;;;;17.26;57.24;95979.08;1757299;81;21014;-71
2022/10/15 11:03:31;;;;;;;9.75;6.30;;;;;;;17.30;57.84;95978.05;1758760;81;21058;-71
2022/10/15 11:06:12;;;;;;;8.33;6.78;;;;;;;17.32;57.13;95978.00;1757395;81;21018;-70
2022/10/15 11:08:59;;;;;;;7.83;6.60;;;;;;;17.26;56.32;95976.42;1757048;81;21057;-71
2022/10/15 11:11:46;;;;;;;9.40;6.33;;;;;;;17.58;56.69;95972.95;1757654;81;21045;-71
2022/10/15 11:14:39;;;;;;;10.10;7.20;;;;;;;18.23;56.75;95959.18;1695231;81;21488;-70
2022/10/15 11:17:27;;;;;;;8.58;6.35;;;;;;;18.89;52.79;95961.16;1761466;81;21054;-70
2022/10/15 11:20:14;;;;;;;10.63;6.67;;;;;;;19.00;52.34;95959.36;1759436;81;21065;-71
2022/10/15 11:22:47;;;;;;;8.28;5.95;;;;;;;18.93;52.32;95952.08;1754336;81;21023;-71
2022/10/15 11:25:43;;;;;;;8.95;6.45;;;;;;;19.52;51.91;95956.02;1758235;81;21677;-70
2022/10/15 11:28:27;;;;;;;10.43;7.00;;;;;;;20.10;48.96;95943.33;1756334;81;21065;-70
2022/10/15 11:31:31;;;;;;;10.40;6.45;;;;;;;20.68;50.33;95950.68;1758393;81;21093;-71
2022/10/15 11:34:37;;;;;;;8.83;6.42;;;;;;;21.08;47.18;95947.20;1748116;81;20990;-70
2022/10/15 11:37:12;;;;;;;11.80;7.03;;;;;;;21.04;47.20;95948.31;1757332;81;21014;-71
2022/10/15 11:39:50;;;;;;;8.03;6.50;;;;;;;20.54;47.13;95940.66;1720569;83;21092;-70
2022/10/15 11:42:30;;;;;;;10.30;6.80;;;;;;;20.19;47.50;95941.15;1760374;81;21149;-71
2022/10/15 11:45:03;;;;;;;9.58;6.62;;;;;;;20.11;49.09;95948.23;1756289;81;21011;-71
2022/10/15 11:47:53;;;;;;;7.83;6.20;;;;;;;20.29;48.08;95943.27;1753823;81;21063;-71
2022/10/15 11:50:48;;;;;;;10.78;6.50;;;;;;;20.43;48.65;95941.20;1761046;81;21077;-71
2022/10/15 11:53:38;;;;;;;10.90;6.60;;;;;;;20.31;47.08;95941.87;1755630;81;21064;-71
2022/10/15 11:56:19;;;;;;;14.58;7.00;;;;;;;20.12;47.26;95941.06;1759010;81;21018;-71
2022/10/15 11:59:11;;;;;;;8.25;6.22;;;;;;;19.92;48.16;95943.41;1756187;81;21030;-71
2022/10/15 12:01:58;;;;;;;11.43;6.15;;;;;;;19.87;48.94;95941.81;1759823;81;21037;-70
2022/10/15 12:04:45;;;;;;;8.60;6.20;;;;;;;19.69;48.86;95944.06;1759754;81;21102;-70
2022/10/15 12:07:22;;;;;;;11.12;7.30;;;;;;;19.55;50.24;95950.04;1757783;81;21018;-70